createdAt,value
2018-07-17T00:01:11.774Z,28.70
2018-07-17T00:03:46.457Z,28.73
2018-07-17T00:06:40.799Z,28.72
2018-07-17T00:09:15.503Z,28.73
2018-07-17T00:11:50.100Z,28.71
2018-07-17T00:14:24.025Z,28.71
2018-07-17T00:16:58.299Z,28.71
2018-07-17T00:19:36.047Z,28.71
2018-07-17T00:22:30.327Z,28.72
2018-07-17T00:25:03.225Z,28.66
2018-07-17T00:28:10.884Z,28.73
2018-07-17T00:30:45.369Z,28.74
2018-07-17T00:33:39.558Z,28.71
2018-07-17T00:36:14.070Z,28.72
2018-07-17T00:38:47.326Z,28.71
2018-07-17T00:41:21.527Z,28.71
2018-07-17T00:44:00.519Z,28.71
2018-07-17T00:46:56.328Z,28.72
2018-07-17T01:02:43.058Z,28.45
2018-07-17T01:05:21.982Z,28.39
2018-07-17T01:08:03.826Z,28.42
2018-07-17T01:10:44.491Z,28.48
2018-07-17T01:13:44.865Z,28.52
2018-07-17T01:16:23.318Z,28.57
2018-07-17T01:18:58.618Z,28.57
2018-07-17T01:21:32.836Z,28.60
2018-07-17T01:24:27.073Z,28.60
2018-07-17T01:27:05.777Z,28.64
2018-07-17T01:29:51.538Z,28.65
2018-07-17T01:32:25.293Z,28.65
2018-07-17T01:35:00.217Z,28.67
2018-07-17T01:37:33.874Z,28.66
2018-07-17T01:40:08.277Z,28.68
2018-07-17T01:43:02.558Z,28.69
2018-07-17T01:45:35.551Z,28.71
2018-07-17T01:48:11.569Z,28.71
2018-07-17T01:51:05.737Z,28.71
2018-07-17T01:54:30.812Z,28.72
2018-07-17T02:07:17.248Z,28.52
2018-07-17T02:09:52.572Z,28.46
2018-07-17T02:12:47.330Z,28.46
2018-07-17T02:15:22.117Z,28.52
2018-07-17T02:17:57.007Z,28.53
2018-07-17T02:20:51.884Z,28.55
2018-07-17T02:23:26.071Z,28.59
2018-07-17T02:35:59.877Z,28.48
2018-07-17T02:48:27.930Z,28.33
2018-07-17T02:51:04.102Z,28.26
2018-07-17T02:53:37.831Z,28.30
2018-07-17T02:56:33.651Z,28.34
2018-07-17T02:59:28.620Z,28.41
2018-07-17T03:02:22.384Z,28.45
2018-07-17T03:05:16.830Z,28.47
2018-07-17T03:07:50.929Z,28.50
2018-07-17T03:20:19.882Z,28.36
2018-07-17T03:23:25.837Z,28.28
2018-07-17T03:26:00.572Z,28.35
2018-07-17T03:28:56.062Z,28.36
2018-07-17T03:31:32.069Z,28.42
2018-07-17T03:34:07.377Z,28.44
2018-07-17T03:36:41.971Z,28.45
2018-07-17T03:39:15.945Z,28.47
2018-07-17T03:41:50.234Z,28.48
2018-07-17T04:01:07.998Z,28.22
2018-07-17T04:04:03.777Z,28.19
2018-07-17T04:06:42.655Z,28.23
2018-07-17T04:09:37.611Z,28.26
2018-07-17T04:25:41.798Z,28.18
2018-07-17T04:28:14.955Z,28.16
2018-07-17T04:30:49.540Z,28.19
2018-07-17T04:33:44.370Z,28.23
2018-07-17T04:36:17.862Z,28.32
2018-07-17T04:38:55.130Z,28.35
2018-07-17T04:41:27.763Z,28.40
2018-07-17T07:47:33.124Z,27.94
2018-07-17T07:50:32.282Z,27.73
2018-07-17T07:53:06.447Z,27.59
2018-07-17T07:55:39.937Z,27.49
2018-07-17T07:58:13.464Z,27.36
2018-07-17T08:00:47.224Z,27.04
2018-07-17T08:03:20.830Z,26.93
2018-07-17T08:05:56.168Z,27.25
2018-07-17T08:08:32.826Z,27.13
2018-07-17T08:11:06.894Z,27.05
2018-07-17T08:13:43.550Z,26.95
2018-07-17T08:32:38.756Z,26.72
2018-07-17T08:35:34.007Z,26.56
2018-07-17T08:38:08.615Z,26.59
2018-07-17T08:40:42.816Z,26.59
2018-07-17T08:43:14.421Z,26.61
2018-07-17T08:45:49.396Z,26.63
2018-07-17T08:48:22.340Z,26.64
2018-07-17T08:50:56.490Z,26.73
2018-07-17T08:53:28.859Z,26.71
2018-07-17T08:56:02.236Z,26.72
2018-07-17T08:58:35.216Z,26.75
2018-07-17T09:01:09.105Z,26.81
2018-07-17T09:07:41.915Z,26.88
2018-07-17T09:10:16.310Z,26.85
2018-07-17T09:12:50.874Z,26.93
2018-07-17T09:15:26.332Z,26.98
2018-07-17T09:22:02.229Z,27.08
2018-07-17T09:24:36.915Z,27.31
